sensor_id;sensor_type;location;lat;lon;timestamp;P1;durP1;ratioP1;P2;durP2;ratioP2
38332;SDS011;25748;46.670;14.272;2022-12-18T00:01:02;50.95;;;7.47;;
38332;SDS011;25748;46.670;14.272;2022-12-18T00:03:34;44.25;;;8.23;;
38332;SDS011;25748;46.670;14.272;2022-12-18T00:06:01;28.27;;;8.52;;
38332;SDS011;25748;46.670;14.272;2022-12-18T00:08:27;27.38;;;7.32;;
38332;SDS011;25748;46.670;14.272;2022-12-18T00:10:53;35.47;;;6.97;;
38332;SDS011;25748;46.670;14.272;2022-12-18T00:13:20;37.58;;;7.00;;
38332;SDS011;25748;46.670;14.272;2022-12-18T00:15:47;31.75;;;5.93;;
38332;SDS011;25748;46.670;14.272;2022-12-18T00:18:12;19.65;;;6.60;;
38332;SDS011;25748;46.670;14.272;2022-12-18T00:20:39;37.03;;;8.00;;
38332;SDS011;25748;46.670;14.272;2022-12-18T00:23:06;15.90;;;7.72;;
38332;SDS011;25748;46.670;14.272;2022-12-18T00:25:35;33.70;;;8.68;;
38332;SDS011;25748;46.670;14.272;2022-12-18T00:28:03;21.42;;;6.40;;
38332;SDS011;25748;46.670;14.272;2022-12-18T00:30:30;17.50;;;6.85;;
38332;SDS011;25748;46.670;14.272;2022-12-18T00:33:26;31.73;;;8.32;;
38332;SDS011;25748;46.670;14.272;2022-12-18T00:36:06;14.05;;;6.60;;
38332;SDS011;25748;46.670;14.272;2022-12-18T00:38:35;18.02;;;7.38;;
38332;SDS011;25748;46.670;14.272;2022-12-18T00:41:03;15.25;;;7.05;;
38332;SDS011;25748;46.670;14.272;2022-12-18T00:43:29;25.15;;;7.70;;
38332;SDS011;25748;46.670;14.272;2022-12-18T00:45:55;16.20;;;7.10;;
38332;SDS011;25748;46.670;14.272;2022-12-18T00:48:22;16.75;;;7.32;;
38332;SDS011;25748;46.670;14.272;2022-12-18T00:50:49;13.55;;;6.97;;
38332;SDS011;25748;46.670;14.272;2022-12-18T00:53:15;13.50;;;7.18;;
38332;SDS011;25748;46.670;14.272;2022-12-18T00:55:47;12.20;;;6.13;;
38332;SDS011;25748;46.670;14.272;2022-12-18T00:58:14;14.40;;;6.22;;
38332;SDS011;25748;46.670;14.272;2022-12-18T01:00:42;13.20;;;5.68;;
38332;SDS011;25748;46.670;14.272;2022-12-18T01:03:13;13.32;;;5.97;;
38332;SDS011;25748;46.670;14.272;2022-12-18T01:05:39;14.97;;;5.97;;
38332;SDS011;25748;46.670;14.272;2022-12-18T01:08:07;13.10;;;6.53;;
38332;SDS011;25748;46.670;14.272;2022-12-18T01:10:34;11.13;;;5.03;;
38332;SDS011;25748;46.670;14.272;2022-12-18T01:13:01;12.50;;;6.03;;
38332;SDS011;25748;46.670;14.272;2022-12-18T01:15:28;15.27;;;6.80;;
38332;SDS011;25748;46.670;14.272;2022-12-18T01:17:55;13.23;;;5.97;;
38332;SDS011;25748;46.670;14.272;2022-12-18T01:20:22;14.90;;;6.82;;
38332;SDS011;25748;46.670;14.272;2022-12-18T01:22:52;15.70;;;7.60;;
38332;SDS011;25748;46.670;14.272;2022-12-18T01:25:18;15.68;;;7.03;;
38332;SDS011;25748;46.670;14.272;2022-12-18T01:27:44;19.00;;;7.00;;
38332;SDS011;25748;46.670;14.272;2022-12-18T01:30:11;15.02;;;7.32;;
38332;SDS011;25748;46.670;14.272;2022-12-18T01:32:37;17.15;;;7.97;;
38332;SDS011;25748;46.670;14.272;2022-12-18T01:35:03;21.27;;;6.90;;
38332;SDS011;25748;46.670;14.272;2022-12-18T01:37:30;16.48;;;6.45;;
38332;SDS011;25748;46.670;14.272;2022-12-18T01:39:56;16.17;;;7.65;;
38332;SDS011;25748;46.670;14.272;2022-12-18T01:42:22;19.48;;;7.40;;
38332;SDS011;25748;46.670;14.272;2022-12-18T01:45:33;13.80;;;6.13;;
38332;SDS011;25748;46.670;14.272;2022-12-18T01:47:41;15.25;;;6.55;;
38332;SDS011;25748;46.670;14.272;2022-12-18T01:50:15;17.20;;;7.45;;
38332;SDS011;25748;46.670;14.272;2022-12-18T01:52:44;15.57;;;6.70;;
38332;SDS011;25748;46.670;14.272;2022-12-18T01:55:12;12.65;;;5.88;;
38332;SDS011;25748;46.670;14.272;2022-12-18T01:57:43;16.85;;;6.57;;
38332;SDS011;25748;46.670;14.272;2022-12-18T02:00:12;15.18;;;7.75;;
38332;SDS011;25748;46.670;14.272;2022-12-18T02:02:41;12.68;;;6.38;;
38332;SDS011;25748;46.670;14.272;2022-12-18T02:05:10;16.10;;;6.88;;
38332;SDS011;25748;46.670;14.272;2022-12-18T02:10:18;14.95;;;7.13;;
38332;SDS011;25748;46.670;14.272;2022-12-18T02:13:15;15.07;;;7.00;;
38332;SDS011;25748;46.670;14.272;2022-12-18T02:18:36;17.13;;;7.53;;
38332;SDS011;25748;46.670;14.272;2022-12-18T02:24:14;24.80;;;7.28;;
38332;SDS011;25748;46.670;14.272;2022-12-18T02:27:03;14.70;;;6.68;;
38332;SDS011;25748;46.670;14.272;2022-12-18T02:29:46;20.55;;;7.50;;
38332;SDS011;25748;46.670;14.272;2022-12-18T02:32:19;19.15;;;7.22;;
38332;SDS011;25748;46.670;14.272;2022-12-18T02:34:50;21.27;;;6.60;;
38332;SDS011;25748;46.670;14.272;2022-12-18T02:37:18;17.77;;;6.07;;
38332;SDS011;25748;46.670;14.272;2022-12-18T02:39:46;15.63;;;6.75;;
38332;SDS011;25748;46.670;14.272;2022-12-18T02:42:14;13.35;;;6.40;;
38332;SDS011;25748;46.670;14.272;2022-12-18T02:44:43;15.90;;;7.80;;
38332;SDS011;25748;46.670;14.272;2022-12-18T02:47:17;18.90;;;7.97;;
38332;SDS011;25748;46.670;14.272;2022-12-18T02:49:53;17.50;;;7.28;;
38332;SDS011;25748;46.670;14.272;2022-12-18T02:52:33;14.52;;;6.25;;
38332;SDS011;25748;46.670;14.272;2022-12-18T02:58:00;27.00;;;7.43;;
38332;SDS011;25748;46.670;14.272;2022-12-18T03:00:39;16.23;;;6.82;;
38332;SDS011;25748;46.670;14.272;2022-12-18T03:03:16;15.18;;;7.25;;
38332;SDS011;25748;46.670;14.272;2022-12-18T03:05:52;17.27;;;7.22;;
38332;SDS011;25748;46.670;14.272;2022-12-18T03:08:29;17.42;;;7.90;;
38332;SDS011;25748;46.670;14.272;2022-12-18T03:11:17;12.02;;;5.35;;
38332;SDS011;25748;46.670;14.272;2022-12-18T03:14:06;12.88;;;5.70;;
38332;SDS011;25748;46.670;14.272;2022-12-18T03:16:33;18.60;;;7.45;;
38332;SDS011;25748;46.670;14.272;2022-12-18T03:19:02;17.75;;;7.13;;
38332;SDS011;25748;46.670;14.272;2022-12-18T03:21:38;21.40;;;7.78;;
38332;SDS011;25748;46.670;14.272;2022-12-18T03:24:07;14.40;;;6.65;;
38332;SDS011;25748;46.670;14.272;2022-12-18T03:26:36;14.93;;;7.00;;
38332;SDS011;25748;46.670;14.272;2022-12-18T03:29:08;17.17;;;7.70;;
38332;SDS011;25748;46.670;14.272;2022-12-18T03:31:40;15.90;;;7.30;;
38332;SDS011;25748;46.670;14.272;2022-12-18T03:34:16;12.20;;;6.03;;
38332;SDS011;25748;46.670;14.272;2022-12-18T03:36:48;11.02;;;6.03;;
38332;SDS011;25748;46.670;14.272;2022-12-18T03:39:14;12.60;;;6.13;;
38332;SDS011;25748;46.670;14.272;2022-12-18T03:41:44;14.60;;;6.88;;
38332;SDS011;25748;46.670;14.272;2022-12-18T03:49:46;14.73;;;6.22;;
38332;SDS011;25748;46.670;14.272;2022-12-18T03:54:53;14.80;;;7.57;;
38332;SDS011;25748;46.670;14.272;2022-12-18T03:57:25;15.27;;;6.78;;
38332;SDS011;25748;46.670;14.272;2022-12-18T03:59:57;15.30;;;7.55;;
38332;SDS011;25748;46.670;14.272;2022-12-18T04:02:33;12.43;;;6.60;;
38332;SDS011;25748;46.670;14.272;2022-12-18T04:05:02;19.50;;;7.68;;
38332;SDS011;25748;46.670;14.272;2022-12-18T04:07:31;13.90;;;7.07;;
38332;SDS011;25748;46.670;14.272;2022-12-18T04:09:58;15.00;;;6.53;;
38332;SDS011;25748;46.670;14.272;2022-12-18T04:12:25;15.82;;;7.80;;
38332;SDS011;25748;46.670;14.272;2022-12-18T04:14:53;17.83;;;6.63;;
38332;SDS011;25748;46.670;14.272;2022-12-18T04:17:19;14.15;;;6.97;;
38332;SDS011;25748;46.670;14.272;2022-12-18T04:19:45;15.65;;;7.40;;
38332;SDS011;25748;46.670;14.272;2022-12-18T04:22:10;14.75;;;7.03;;
38332;SDS011;25748;46.670;14.272;2022-12-18T04:24:36;16.20;;;7.15;;
38332;SDS011;25748;46.670;14.272;2022-12-18T04:27:04;13.85;;;6.63;;
38332;SDS011;25748;46.670;14.272;2022-12-18T04:29:31;14.35;;;6.28;;
38332;SDS011;25748;46.670;14.272;2022-12-18T04:31:56;12.55;;;7.03;;
38332;SDS011;25748;46.670;14.272;2022-12-18T04:34:22;17.73;;;7.20;;
38332;SDS011;25748;46.670;14.272;2022-12-18T04:36:48;15.57;;;6.40;;
38332;SDS011;25748;46.670;14.272;2022-12-18T04:39:14;14.90;;;6.28;;
38332;SDS011;25748;46.670;14.272;2022-12-18T04:41:46;16.25;;;6.65;;
38332;SDS011;25748;46.670;14.272;2022-12-18T04:44:11;11.85;;;6.28;;
38332;SDS011;25748;46.670;14.272;2022-12-18T04:46:37;11.13;;;5.45;;
38332;SDS011;25748;46.670;14.272;2022-12-18T04:49:03;12.10;;;5.88;;
38332;SDS011;25748;46.670;14.272;2022-12-18T04:51:29;11.32;;;6.20;;
38332;SDS011;25748;46.670;14.272;2022-12-18T04:53:56;15.77;;;6.07;;
38332;SDS011;25748;46.670;14.272;2022-12-18T04:56:22;19.08;;;7.32;;
38332;SDS011;25748;46.670;14.272;2022-12-18T04:58:48;13.45;;;6.57;;
38332;SDS011;25748;46.670;14.272;2022-12-18T05:01:15;17.35;;;7.18;;
38332;SDS011;25748;46.670;14.272;2022-12-18T05:03:42;11.88;;;6.20;;
38332;SDS011;25748;46.670;14.272;2022-12-18T05:06:10;14.32;;;7.13;;
38332;SDS011;25748;46.670;14.272;2022-12-18T05:08:35;12.52;;;6.28;;
38332;SDS011;25748;46.670;14.272;2022-12-18T05:11:03;10.05;;;5.85;;
38332;SDS011;25748;46.670;14.272;2022-12-18T05:13:30;13.20;;;6.45;;
38332;SDS011;25748;46.670;14.272;2022-12-18T05:15:57;11.32;;;5.93;;
38332;SDS011;25748;46.670;14.272;2022-12-18T05:18:23;15.45;;;6.38;;
38332;SDS011;25748;46.670;14.272;2022-12-18T05:20:50;9.55;;;5.43;;
38332;SDS011;25748;46.670;14.272;2022-12-18T05:23:16;12.80;;;6.10;;
38332;SDS011;25748;46.670;14.272;2022-12-18T05:25:42;11.85;;;5.63;;
38332;SDS011;25748;46.670;14.272;2022-12-18T05:28:16;11.10;;;6.22;;
38332;SDS011;25748;46.670;14.272;2022-12-18T05:30:42;12.13;;;6.22;;
38332;SDS011;25748;46.670;14.272;2022-12-18T05:33:07;11.48;;;5.68;;
38332;SDS011;25748;46.670;14.272;2022-12-18T05:35:33;14.10;;;5.63;;
38332;SDS011;25748;46.670;14.272;2022-12-18T05:37:59;10.43;;;5.10;;
38332;SDS011;25748;46.670;14.272;2022-12-18T05:40:24;13.43;;;5.97;;
38332;SDS011;25748;46.670;14.272;2022-12-18T05:42:50;11.90;;;6.13;;
38332;SDS011;25748;46.670;14.272;2022-12-18T05:45:16;12.93;;;5.57;;
38332;SDS011;25748;46.670;14.272;2022-12-18T05:47:42;11.73;;;5.85;;
38332;SDS011;25748;46.670;14.272;2022-12-18T05:50:07;9.27;;;4.95;;
38332;SDS011;25748;46.670;14.272;2022-12-18T05:52:33;14.55;;;6.00;;
38332;SDS011;25748;46.670;14.272;2022-12-18T05:55:01;14.68;;;5.88;;
38332;SDS011;25748;46.670;14.272;2022-12-18T05:57:27;11.05;;;5.70;;
38332;SDS011;25748;46.670;14.272;2022-12-18T05:59:53;13.45;;;5.90;;
38332;SDS011;25748;46.670;14.272;2022-12-18T06:02:19;15.98;;;6.05;;
38332;SDS011;25748;46.670;14.272;2022-12-18T06:04:45;11.10;;;5.38;;
38332;SDS011;25748;46.670;14.272;2022-12-18T06:07:12;11.90;;;5.43;;
38332;SDS011;25748;46.670;14.272;2022-12-18T06:09:37;11.27;;;6.28;;
38332;SDS011;25748;46.670;14.272;2022-12-18T06:12:03;14.20;;;6.32;;
38332;SDS011;25748;46.670;14.272;2022-12-18T06:14:29;11.32;;;5.72;;
38332;SDS011;25748;46.670;14.272;2022-12-18T06:16:55;11.80;;;5.20;;
38332;SDS011;25748;46.670;14.272;2022-12-18T06:19:21;14.15;;;6.05;;
38332;SDS011;25748;46.670;14.272;2022-12-18T06:21:46;9.45;;;4.93;;
38332;SDS011;25748;46.670;14.272;2022-12-18T06:24:12;11.95;;;5.43;;
38332;SDS011;25748;46.670;14.272;2022-12-18T06:26:38;12.30;;;5.28;;
38332;SDS011;25748;46.670;14.272;2022-12-18T06:29:04;17.25;;;6.00;;
38332;SDS011;25748;46.670;14.272;2022-12-18T06:31:30;10.00;;;4.95;;
38332;SDS011;25748;46.670;14.272;2022-12-18T06:33:56;10.98;;;5.20;;
38332;SDS011;25748;46.670;14.272;2022-12-18T06:36:21;12.75;;;5.45;;
38332;SDS011;25748;46.670;14.272;2022-12-18T06:38:47;9.30;;;4.85;;
38332;SDS011;25748;46.670;14.272;2022-12-18T06:41:15;10.75;;;5.35;;
38332;SDS011;25748;46.670;14.272;2022-12-18T06:43:44;15.23;;;6.15;;
38332;SDS011;25748;46.670;14.272;2022-12-18T06:46:10;9.23;;;4.97;;
38332;SDS011;25748;46.670;14.272;2022-12-18T06:48:36;12.00;;;5.05;;
38332;SDS011;25748;46.670;14.272;2022-12-18T06:51:02;13.23;;;4.57;;
38332;SDS011;25748;46.670;14.272;2022-12-18T06:53:28;12.82;;;5.68;;
38332;SDS011;25748;46.670;14.272;2022-12-18T06:56:01;11.50;;;5.45;;
38332;SDS011;25748;46.670;14.272;2022-12-18T06:58:28;8.93;;;4.85;;
38332;SDS011;25748;46.670;14.272;2022-12-18T07:00:58;10.30;;;5.25;;
38332;SDS011;25748;46.670;14.272;2022-12-18T07:03:27;12.77;;;6.03;;
38332;SDS011;25748;46.670;14.272;2022-12-18T07:05:53;11.40;;;5.05;;
38332;SDS011;25748;46.670;14.272;2022-12-18T07:08:18;11.88;;;5.50;;
38332;SDS011;25748;46.670;14.272;2022-12-18T07:10:44;14.07;;;6.78;;
38332;SDS011;25748;46.670;14.272;2022-12-18T07:13:10;12.30;;;5.63;;
38332;SDS011;25748;46.670;14.272;2022-12-18T07:15:36;12.07;;;5.70;;
38332;SDS011;25748;46.670;14.272;2022-12-18T07:18:01;13.02;;;5.32;;
38332;SDS011;25748;46.670;14.272;2022-12-18T07:20:27;12.52;;;5.85;;
38332;SDS011;25748;46.670;14.272;2022-12-18T07:22:53;9.60;;;5.63;;
38332;SDS011;25748;46.670;14.272;2022-12-18T07:25:18;11.57;;;5.88;;
38332;SDS011;25748;46.670;14.272;2022-12-18T07:27:44;16.27;;;5.25;;
38332;SDS011;25748;46.670;14.272;2022-12-18T07:30:10;13.60;;;5.90;;
38332;SDS011;25748;46.670;14.272;2022-12-18T07:32:36;7.95;;;4.68;;
38332;SDS011;25748;46.670;14.272;2022-12-18T07:35:01;12.05;;;5.78;;
38332;SDS011;25748;46.670;14.272;2022-12-18T07:37:27;14.00;;;6.72;;
38332;SDS011;25748;46.670;14.272;2022-12-18T07:39:53;8.63;;;4.55;;
38332;SDS011;25748;46.670;14.272;2022-12-18T07:42:19;12.88;;;5.13;;
38332;SDS011;25748;46.670;14.272;2022-12-18T07:44:58;15.02;;;6.25;;
38332;SDS011;25748;46.670;14.272;2022-12-18T07:47:24;9.70;;;4.80;;
38332;SDS011;25748;46.670;14.272;2022-12-18T07:49:50;9.30;;;5.15;;
38332;SDS011;25748;46.670;14.272;2022-12-18T07:52:16;13.70;;;6.38;;
38332;SDS011;25748;46.670;14.272;2022-12-18T07:54:42;9.93;;;5.05;;
38332;SDS011;25748;46.670;14.272;2022-12-18T07:57:11;14.52;;;6.38;;
38332;SDS011;25748;46.670;14.272;2022-12-18T07:59:41;15.45;;;5.95;;
38332;SDS011;25748;46.670;14.272;2022-12-18T08:02:07;11.80;;;5.20;;
38332;SDS011;25748;46.670;14.272;2022-12-18T08:04:33;13.82;;;6.40;;
38332;SDS011;25748;46.670;14.272;2022-12-18T08:06:58;15.60;;;6.20;;
38332;SDS011;25748;46.670;14.272;2022-12-18T08:09:24;13.23;;;6.10;;
38332;SDS011;25748;46.670;14.272;2022-12-18T08:11:50;14.75;;;5.55;;
38332;SDS011;25748;46.670;14.272;2022-12-18T08:14:15;11.95;;;5.85;;
38332;SDS011;25748;46.670;14.272;2022-12-18T08:16:41;9.77;;;5.00;;
38332;SDS011;25748;46.670;14.272;2022-12-18T08:19:07;13.30;;;6.63;;
38332;SDS011;25748;46.670;14.272;2022-12-18T08:21:35;12.98;;;5.78;;
38332;SDS011;25748;46.670;14.272;2022-12-18T08:24:02;16.02;;;7.68;;
38332;SDS011;25748;46.670;14.272;2022-12-18T08:26:29;18.05;;;7.57;;
38332;SDS011;25748;46.670;14.272;2022-12-18T08:28:56;18.73;;;8.13;;
38332;SDS011;25748;46.670;14.272;2022-12-18T08:31:26;12.70;;;6.50;;
38332;SDS011;25748;46.670;14.272;2022-12-18T08:34:02;13.50;;;6.22;;
38332;SDS011;25748;46.670;14.272;2022-12-18T08:36:28;13.80;;;6.50;;
38332;SDS011;25748;46.670;14.272;2022-12-18T08:38:54;12.77;;;6.38;;
38332;SDS011;25748;46.670;14.272;2022-12-18T08:41:20;13.43;;;6.32;;
38332;SDS011;25748;46.670;14.272;2022-12-18T08:43:46;16.83;;;6.47;;
38332;SDS011;25748;46.670;14.272;2022-12-18T08:46:35;14.77;;;5.97;;
38332;SDS011;25748;46.670;14.272;2022-12-18T08:49:03;15.13;;;5.95;;
38332;SDS011;25748;46.670;14.272;2022-12-18T08:51:30;14.45;;;6.65;;
38332;SDS011;25748;46.670;14.272;2022-12-18T08:53:56;13.63;;;5.80;;
38332;SDS011;25748;46.670;14.272;2022-12-18T08:56:22;12.45;;;5.60;;
38332;SDS011;25748;46.670;14.272;2022-12-18T08:58:50;11.05;;;6.25;;
38332;SDS011;25748;46.670;14.272;2022-12-18T09:01:19;16.37;;;7.33;;
38332;SDS011;25748;46.670;14.272;2022-12-18T09:03:46;13.15;;;6.53;;
38332;SDS011;25748;46.670;14.272;2022-12-18T09:06:14;14.27;;;6.88;;
38332;SDS011;25748;46.670;14.272;2022-12-18T09:08:41;15.02;;;6.93;;
38332;SDS011;25748;46.670;14.272;2022-12-18T09:11:15;15.93;;;6.68;;
38332;SDS011;25748;46.670;14.272;2022-12-18T09:13:47;11.63;;;6.53;;
38332;SDS011;25748;46.670;14.272;2022-12-18T09:16:13;12.52;;;7.00;;
38332;SDS011;25748;46.670;14.272;2022-12-18T09:18:39;14.00;;;5.95;;
38332;SDS011;25748;46.670;14.272;2022-12-18T09:21:09;17.08;;;6.60;;
38332;SDS011;25748;46.670;14.272;2022-12-18T09:23:36;14.63;;;6.88;;
38332;SDS011;25748;46.670;14.272;2022-12-18T09:26:01;19.08;;;7.20;;
38332;SDS011;25748;46.670;14.272;2022-12-18T09:28:27;13.23;;;6.30;;
38332;SDS011;25748;46.670;14.272;2022-12-18T09:30:53;12.95;;;5.97;;
38332;SDS011;25748;46.670;14.272;2022-12-18T09:33:19;14.00;;;7.20;;
38332;SDS011;25748;46.670;14.272;2022-12-18T09:35:45;16.55;;;6.78;;
38332;SDS011;25748;46.670;14.272;2022-12-18T09:38:14;14.20;;;6.38;;
38332;SDS011;25748;46.670;14.272;2022-12-18T09:40:51;11.30;;;6.22;;
38332;SDS011;25748;46.670;14.272;2022-12-18T09:46:16;12.98;;;6.00;;
38332;SDS011;25748;46.670;14.272;2022-12-18T09:49:00;12.52;;;5.85;;
38332;SDS011;25748;46.670;14.272;2022-12-18T09:51:32;13.63;;;6.07;;
38332;SDS011;25748;46.670;14.272;2022-12-18T09:56:31;14.52;;;6.50;;
38332;SDS011;25748;46.670;14.272;2022-12-18T09:59:03;13.25;;;5.20;;
38332;SDS011;25748;46.670;14.272;2022-12-18T10:01:29;19.10;;;6.47;;
38332;SDS011;25748;46.670;14.272;2022-12-18T10:03:57;9.70;;;5.25;;
38332;SDS011;25748;46.670;14.272;2022-12-18T10:06:35;13.25;;;6.03;;
38332;SDS011;25748;46.670;14.272;2022-12-18T10:09:33;16.35;;;7.03;;
38332;SDS011;25748;46.670;14.272;2022-12-18T10:14:50;9.25;;;5.63;;
38332;SDS011;25748;46.670;14.272;2022-12-18T10:20:12;13.38;;;6.18;;
38332;SDS011;25748;46.670;14.272;2022-12-18T10:23:01;10.10;;;5.38;;
38332;SDS011;25748;46.670;14.272;2022-12-18T10:26:01;9.40;;;5.22;;
38332;SDS011;25748;46.670;14.272;2022-12-18T10:28:40;11.18;;;4.75;;
38332;SDS011;25748;46.670;14.272;2022-12-18T10:31:17;9.88;;;5.85;;
38332;SDS011;25748;46.670;14.272;2022-12-18T10:33:50;13.38;;;5.85;;
38332;SDS011;25748;46.670;14.272;2022-12-18T10:36:20;9.48;;;5.22;;
38332;SDS011;25748;46.670;14.272;2022-12-18T10:38:51;13.32;;;5.78;;
38332;SDS011;25748;46.670;14.272;2022-12-18T10:44:19;15.57;;;5.70;;
38332;SDS011;25748;46.670;14.272;2022-12-18T10:46:55;13.05;;;6.07;;
38332;SDS011;25748;46.670;14.272;2022-12-18T10:49:36;13.65;;;6.53;;
38332;SDS011;25748;46.670;14.272;2022-12-18T10:52:20;13.77;;;6.43;;
38332;SDS011;25748;46.670;14.272;2022-12-18T10:55:13;12.80;;;5.80;;
38332;SDS011;25748;46.670;14.272;2022-12-18T10:57:45;17.77;;;5.90;;
38332;SDS011;25748;46.670;14.272;2022-12-18T11:05:27;11.93;;;5.15;;
38332;SDS011;25748;46.670;14.272;2022-12-18T11:07:59;14.00;;;7.25;;
38332;SDS011;25748;46.670;14.272;2022-12-18T11:10:33;12.80;;;5.57;;
38332;SDS011;25748;46.670;14.272;2022-12-18T11:13:19;13.93;;;6.07;;
38332;SDS011;25748;46.670;14.272;2022-12-18T11:15:51;18.05;;;7.03;;
38332;SDS011;25748;46.670;14.272;2022-12-18T11:21:04;16.30;;;7.38;;
38332;SDS011;25748;46.670;14.272;2022-12-18T11:23:32;17.10;;;5.85;;
38332;SDS011;25748;46.670;14.272;2022-12-18T11:25:59;15.82;;;5.57;;
38332;SDS011;25748;46.670;14.272;2022-12-18T11:28:28;12.35;;;5.35;;
38332;SDS011;25748;46.670;14.272;2022-12-18T11:31:08;16.15;;;5.78;;
38332;SDS011;25748;46.670;14.272;2022-12-18T11:33:46;15.88;;;6.00;;
38332;SDS011;25748;46.670;14.272;2022-12-18T11:36:34;12.18;;;5.43;;
38332;SDS011;25748;46.670;14.272;2022-12-18T11:39:08;10.48;;;4.80;;
38332;SDS011;25748;46.670;14.272;2022-12-18T11:41:50;11.20;;;5.22;;
38332;SDS011;25748;46.670;14.272;2022-12-18T11:44:42;9.68;;;4.45;;
38332;SDS011;25748;46.670;14.272;2022-12-18T11:47:31;8.23;;;4.00;;
38332;SDS011;25748;46.670;14.272;2022-12-18T11:50:25;11.38;;;3.63;;
38332;SDS011;25748;46.670;14.272;2022-12-18T11:52:56;8.82;;;3.78;;
38332;SDS011;25748;46.670;14.272;2022-12-18T11:55:28;9.25;;;3.45;;
38332;SDS011;25748;46.670;14.272;2022-12-18T12:01:11;12.40;;;5.03;;
38332;SDS011;25748;46.670;14.272;2022-12-18T12:06:32;8.30;;;3.55;;
38332;SDS011;25748;46.670;14.272;2022-12-18T12:09:28;8.13;;;4.47;;
38332;SDS011;25748;46.670;14.272;2022-12-18T12:17:45;8.68;;;3.60;;
38332;SDS011;25748;46.670;14.272;2022-12-18T12:20:26;9.75;;;4.20;;
38332;SDS011;25748;46.670;14.272;2022-12-18T12:25:52;9.77;;;5.32;;
38332;SDS011;25748;46.670;14.272;2022-12-18T12:39:33;8.77;;;4.80;;
38332;SDS011;25748;46.670;14.272;2022-12-18T12:42:13;11.63;;;4.88;;
38332;SDS011;25748;46.670;14.272;2022-12-18T12:45:05;10.88;;;4.80;;
38332;SDS011;25748;46.670;14.272;2022-12-18T12:47:39;11.90;;;5.75;;
38332;SDS011;25748;46.670;14.272;2022-12-18T12:50:11;11.32;;;5.10;;
38332;SDS011;25748;46.670;14.272;2022-12-18T12:52:47;16.35;;;5.22;;
38332;SDS011;25748;46.670;14.272;2022-12-18T12:55:25;17.02;;;5.60;;
38332;SDS011;25748;46.670;14.272;2022-12-18T13:01:01;13.07;;;5.53;;
38332;SDS011;25748;46.670;14.272;2022-12-18T13:06:33;12.23;;;5.13;;
38332;SDS011;25748;46.670;14.272;2022-12-18T13:09:05;10.27;;;4.85;;
38332;SDS011;25748;46.670;14.272;2022-12-18T13:11:41;10.70;;;4.95;;
38332;SDS011;25748;46.670;14.272;2022-12-18T13:14:33;16.70;;;5.20;;
38332;SDS011;25748;46.670;14.272;2022-12-18T13:17:16;10.07;;;5.07;;
38332;SDS011;25748;46.670;14.272;2022-12-18T13:20:09;11.23;;;5.00;;
38332;SDS011;25748;46.670;14.272;2022-12-18T13:22:45;10.48;;;4.97;;
38332;SDS011;25748;46.670;14.272;2022-12-18T13:28:05;13.02;;;6.97;;
38332;SDS011;25748;46.670;14.272;2022-12-18T13:38:32;11.50;;;5.60;;
38332;SDS011;25748;46.670;14.272;2022-12-18T13:43:52;12.13;;;5.18;;
38332;SDS011;25748;46.670;14.272;2022-12-18T13:46:56;12.32;;;5.07;;
38332;SDS011;25748;46.670;14.272;2022-12-18T13:52:15;15.85;;;6.45;;
38332;SDS011;25748;46.670;14.272;2022-12-18T13:54:59;11.27;;;5.38;;
38332;SDS011;25748;46.670;14.272;2022-12-18T13:57:30;13.43;;;6.55;;
38332;SDS011;25748;46.670;14.272;2022-12-18T14:02:55;11.07;;;5.53;;
38332;SDS011;25748;46.670;14.272;2022-12-18T14:08:01;12.00;;;5.63;;
38332;SDS011;25748;46.670;14.272;2022-12-18T14:10:34;17.98;;;6.55;;
38332;SDS011;25748;46.670;14.272;2022-12-18T14:13:05;12.43;;;6.05;;
38332;SDS011;25748;46.670;14.272;2022-12-18T14:15:42;15.87;;;7.43;;
38332;SDS011;25748;46.670;14.272;2022-12-18T14:21:03;13.38;;;5.72;;
38332;SDS011;25748;46.670;14.272;2022-12-18T14:23:42;13.25;;;5.80;;
38332;SDS011;25748;46.670;14.272;2022-12-18T14:28:57;15.10;;;6.07;;
38332;SDS011;25748;46.670;14.272;2022-12-18T14:31:43;15.60;;;6.93;;
38332;SDS011;25748;46.670;14.272;2022-12-18T14:34:16;16.02;;;6.45;;
38332;SDS011;25748;46.670;14.272;2022-12-18T14:37:12;17.75;;;6.53;;
38332;SDS011;25748;46.670;14.272;2022-12-18T14:39:57;15.45;;;6.78;;
38332;SDS011;25748;46.670;14.272;2022-12-18T14:42:29;12.43;;;6.68;;
38332;SDS011;25748;46.670;14.272;2022-12-18T14:47:58;17.35;;;6.75;;
38332;SDS011;25748;46.670;14.272;2022-12-18T14:50:24;14.15;;;6.70;;
38332;SDS011;25748;46.670;14.272;2022-12-18T14:52:51;15.38;;;7.00;;
38332;SDS011;25748;46.670;14.272;2022-12-18T14:55:17;18.05;;;7.72;;
38332;SDS011;25748;46.670;14.272;2022-12-18T14:57:45;15.50;;;7.18;;
38332;SDS011;25748;46.670;14.272;2022-12-18T15:03:08;14.18;;;6.93;;
38332;SDS011;25748;46.670;14.272;2022-12-18T15:05:34;14.98;;;6.72;;
38332;SDS011;25748;46.670;14.272;2022-12-18T15:08:01;14.32;;;6.55;;
38332;SDS011;25748;46.670;14.272;2022-12-18T15:10:29;16.48;;;7.05;;
38332;SDS011;25748;46.670;14.272;2022-12-18T15:16:04;11.95;;;6.57;;
38332;SDS011;25748;46.670;14.272;2022-12-18T15:20:48;11.98;;;6.40;;
38332;SDS011;25748;46.670;14.272;2022-12-18T15:23:35;14.98;;;6.63;;
38332;SDS011;25748;46.670;14.272;2022-12-18T15:26:02;13.32;;;6.13;;
38332;SDS011;25748;46.670;14.272;2022-12-18T15:28:34;11.77;;;6.07;;
38332;SDS011;25748;46.670;14.272;2022-12-18T15:31:04;11.73;;;5.78;;
38332;SDS011;25748;46.670;14.272;2022-12-18T15:33:47;12.65;;;6.45;;
38332;SDS011;25748;46.670;14.272;2022-12-18T15:36:28;10.13;;;5.53;;
38332;SDS011;25748;46.670;14.272;2022-12-18T15:39:01;10.88;;;5.38;;
38332;SDS011;25748;46.670;14.272;2022-12-18T15:41:32;12.23;;;6.45;;
38332;SDS011;25748;46.670;14.272;2022-12-18T15:44:14;12.73;;;5.82;;
38332;SDS011;25748;46.670;14.272;2022-12-18T15:46:49;12.98;;;6.30;;
38332;SDS011;25748;46.670;14.272;2022-12-18T15:49:15;10.40;;;5.85;;
38332;SDS011;25748;46.670;14.272;2022-12-18T15:51:41;11.30;;;5.93;;
38332;SDS011;25748;46.670;14.272;2022-12-18T15:54:09;14.43;;;5.85;;
38332;SDS011;25748;46.670;14.272;2022-12-18T15:56:38;10.65;;;5.80;;
38332;SDS011;25748;46.670;14.272;2022-12-18T15:59:22;13.98;;;5.82;;
38332;SDS011;25748;46.670;14.272;2022-12-18T16:01:49;9.57;;;4.63;;
38332;SDS011;25748;46.670;14.272;2022-12-18T16:04:17;11.93;;;4.47;;
38332;SDS011;25748;46.670;14.272;2022-12-18T16:06:47;9.68;;;4.47;;
38332;SDS011;25748;46.670;14.272;2022-12-18T16:09:13;6.25;;;4.05;;
38332;SDS011;25748;46.670;14.272;2022-12-18T16:11:39;7.90;;;4.53;;
38332;SDS011;25748;46.670;14.272;2022-12-18T16:14:21;7.43;;;4.13;;
38332;SDS011;25748;46.670;14.272;2022-12-18T16:16:53;11.15;;;4.53;;
38332;SDS011;25748;46.670;14.272;2022-12-18T16:19:25;14.43;;;5.20;;
38332;SDS011;25748;46.670;14.272;2022-12-18T16:21:52;9.48;;;5.15;;
38332;SDS011;25748;46.670;14.272;2022-12-18T16:24:24;15.45;;;5.97;;
38332;SDS011;25748;46.670;14.272;2022-12-18T16:26:51;13.60;;;5.82;;
38332;SDS011;25748;46.670;14.272;2022-12-18T16:29:18;13.18;;;5.72;;
38332;SDS011;25748;46.670;14.272;2022-12-18T16:31:49;10.85;;;5.57;;
38332;SDS011;25748;46.670;14.272;2022-12-18T16:34:23;13.48;;;6.63;;
38332;SDS011;25748;46.670;14.272;2022-12-18T16:36:53;11.35;;;5.53;;